Date,TemperatureHighF,TemperatureAvgF,TemperatureLowF,DewpointHighF,DewpointAvgF,DewpointLowF,HumidityHigh,HumidityAvg,HumidityLow,PressureMaxIn,PressureMinIn,WindSpeedMaxMPH,WindSpeedAvgMPH,GustSpeedMaxMPH,PrecipitationSumIn
2013-1-1,56.0,44.3,34.4,55.7,44.0,33.1,99,99,95,30.28,30.00,11,6,16,0.11
2013-1-2,41.1,34.1,29.2,33.3,29.2,26.5,96,83,65,30.41,30.27,11,5,18,0.00
2013-1-3,40.7,35.4,28.2,31.4,29.3,25.9,92,79,67,30.54,30.38,9,4,18,0.00
2013-1-4,38.2,34.9,31.8,36.3,33.9,30.5,99,96,74,30.59,30.45,8,2,11,0.24
2013-1-5,54.6,42.5,35.5,43.3,39.3,35.2,99,90,64,30.46,30.29,4,1,10,0.02
2013-1-6,54.4,43.3,32.6,39.9,32.3,28.6,96,68,40,30.47,30.34,11,4,18,0.01
2013-1-7,51.9,43.7,36.9,39.8,33.3,27.3,82,67,56,30.38,30.10,8,3,12,0.00
2013-1-8,52.9,47.7,43.4,52.6,47.2,40.0,99,98,83,30.10,29.90,13,4,16,1.19
2013-1-9,54.7,52.3,48.8,54.7,52.2,48.5,100,100,99,30.07,29.87,18,7,23,1.19
2013-1-10,61.7,50.8,41.6,49.5,44.8,40.3,100,81,55,30.08,30.00,13,5,20,0.01
2013-1-11,70.1,58.5,48.5,63.4,53.8,42.1,98,85,69,30.04,29.82,21,13,32,0.00
2013-1-12,69.1,61.7,42.6,65.2,58.2,34.9,99,89,65,29.87,29.65,16,10,24,0.00
2013-1-13,46.9,38.8,32.2,35.5,29.0,24.9,78,68,53,30.23,29.87,14,9,23,0.00
2013-1-14,45.1,34.9,26.7,30.1,26.1,21.1,80,71,54,30.31,30.16,13,7,19,0.00
2013-1-15,35.4,31.9,29.0,32.1,29.6,21.1,98,91,72,30.34,30.15,12,7,20,0.02
2013-1-16,47.9,37.4,26.6,24.4,20.0,16.0,72,52,29,30.44,30.27,8,4,18,0.00
2013-1-17,60.9,48.0,36.0,37.2,32.4,23.0,77,56,37,30.54,30.38,9,3,16,0.00
2013-1-18,61.4,49.3,39.5,36.3,33.3,30.9,72,55,36,30.55,30.34,9,4,14,0.00
2013-1-19,64.7,51.7,40.7,47.1,42.0,36.0,98,72,44,30.35,30.18,13,6,18,0.00
2013-1-20,70.0,57.0,47.8,50.0,44.9,37.3,90,67,32,30.27,30.10,9,5,13,0.00
2013-1-21,68.2,55.9,47.1,54.9,48.7,42.6,97,78,57,30.26,30.14,7,2,12,0.00
2013-1-22,67.5,55.5,44.7,51.5,46.2,40.1,86,72,51,30.32,30.21,15,7,22,0.00
2013-1-23,71.3,59.2,49.4,57.8,53.6,47.9,98,83,59,30.34,30.21,13,8,19,0.00
2013-1-24,76.8,64.4,56.8,61.8,58.0,55.0,98,82,49,30.25,30.10,15,8,25,0.00
2013-1-25,76.1,64.4,55.7,61.6,59.0,53.0,98,84,58,30.13,30.01,14,8,21,0.00
2013-1-26,68.5,55.3,47.4,61.3,53.4,46.9,99,94,76,30.17,30.06,11,4,15,0.00
2013-1-27,74.5,64.7,58.8,64.1,60.7,56.9,97,88,66,30.11,29.94,20,14,30,0.00
2013-1-28,70.7,67.1,64.4,65.6,64.5,63.6,98,92,81,30.00,29.84,22,15,30,0.00
2013-1-29,77.7,64.6,50.7,65.6,55.0,21.9,98,74,32,29.86,29.50,19,11,29,0.00
2013-1-30,52.9,46.9,39.9,27.8,19.0,13.6,61,34,21,30.26,29.77,14,7,27,0.00
2013-1-31,63.6,50.7,39.8,23.2,18.9,13.9,38,29,19,30.35,30.22,13,6,23,0.00
2013-2-1,66.2,55.0,40.8,45.1,35.7,21.8,70,49,32,30.36,30.19,16,7,22,0.00
2013-2-2,72.4,58.3,48.2,54.8,47.8,40.3,93,70,43,30.31,30.17,14,6,20,0.00
2013-2-3,67.2,57.0,47.2,51.6,40.7,26.1,82,56,28,30.35,30.01,14,5,20,0.00
2013-2-4,70.9,61.2,55.2,58.7,54.4,50.7,95,79,57,30.01,29.82,15,8,22,0.00
2013-2-5,77.1,63.1,50.9,52.5,45.2,38.8,82,54,29,30.00,29.87,7,3,18,0.00
2013-2-6,71.9,61.8,57.2,59.6,55.9,48.5,95,82,63,29.98,29.82,12,8,18,0.00
2013-2-7,79.3,64.1,55.2,61.2,51.6,36.5,99,70,27,30.08,29.87,14,7,22,0.01
2013-2-8,65.9,54.1,41.9,45.4,34.6,26.6,84,52,24,30.23,30.07,16,6,24,0.00
2013-2-9,64.7,55.3,47.6,64.7,52.3,30.6,100,91,45,30.11,29.80,17,11,23,0.00
2013-2-10,65.4,58.7,48.8,65.4,40.2,26.5,100,56,28,30.02,29.76,17,6,23,0.01
2013-2-11,57.9,52.2,47.2,46.5,41.0,32.4,97,67,41,30.09,29.98,8,3,14,0.00
2013-2-12,68.3,54.7,41.4,54.2,41.9,22.1,99,70,23,30.08,29.86,13,5,21,0.02
2013-2-13,58.8,45.8,33.2,35.5,31.0,26.2,90,60,30,30.18,30.06,10,5,17,0.00
2013-2-14,67.7,53.4,40.2,39.1,35.5,31.1,79,54,29,30.17,30.02,11,7,16,0.00
2013-2-15,57.2,47.7,35.5,40.9,35.8,23.0,84,64,49,30.42,30.09,12,7,18,0.00
2013-2-16,63.8,46.7,30.8,29.1,25.3,21.5,70,46,23,30.51,30.26,9,3,11,0.00
2013-2-17,65.4,54.6,44.1,51.3,36.8,24.8,83,52,37,30.26,29.96,23,14,37,0.00
2013-2-18,77.6,63.0,51.8,58.5,43.6,16.5,92,58,11,30.08,29.85,24,12,37,0.00
2013-2-19,64.7,53.8,43.0,32.6,29.5,23.8,59,41,22,30.27,30.05,12,6,28,0.00
2013-2-20,63.0,54.1,48.9,62.7,47.4,24.3,99,82,33,30.12,29.65,19,10,33,0.01
2013-2-21,72.5,63.3,50.5,63.7,38.3,16.2,100,50,13,29.86,29.58,19,9,29,0.00
2013-2-22,58.3,48.3,39.0,37.4,32.1,23.5,89,56,31,30.06,29.86,13,6,18,0.00
2013-2-23,69.9,51.3,33.5,38.3,30.7,25.6,79,50,20,30.11,29.91,8,4,15,0.00
2013-2-24,68.0,54.0,44.5,57.8,46.9,35.6,95,77,51,29.94,29.58,17,10,23,0.00
2013-2-25,60.2,55.4,50.4,59.1,42.8,21.6,98,67,29,29.72,29.56,16,10,29,0.00
2013-2-26,65.9,54.7,36.0,29.1,25.7,22.0,69,34,21,30.01,29.88,8,5,16,0.00
2013-2-27,58.2,49.9,38.5,33.8,25.9,19.4,64,40,28,30.27,29.90,15,8,23,0.00
2013-2-28,57.9,45.4,36.3,30.1,24.8,19.4,69,46,26,30.38,30.24,11,4,17,0.00
2013-3-1,66.0,52.4,40.2,27.2,21.3,9.9,54,32,13,30.33,30.15,13,4,23,0.00
2013-3-2,60.0,47.9,36.7,29.8,27.7,24.1,68,47,31,30.45,30.30,12,5,19,0.00
2013-3-3,71.8,57.6,42.2,43.1,31.7,25.1,60,39,23,30.30,29.91,22,12,32,0.00
2013-3-4,85.9,67.1,52.1,49.3,42.9,37.1,85,47,19,29.92,29.72,22,11,30,0.00
2013-3-5,67.4,52.5,38.3,50.7,24.9,10.0,68,38,15,30.38,29.76,23,11,33,0.00
2013-3-6,61.8,46.7,30.2,20.2,16.1,9.9,52,31,13,30.49,30.25,8,4,33,0.00
2013-3-7,68.6,55.5,44.3,54.1,43.9,19.4,90,67,32,30.26,30.10,17,10,24,0.00
2013-3-8,61.6,58.7,55.1,61.3,57.8,53.1,99,97,89,30.13,29.98,17,11,25,0.04
2013-3-9,69.4,62.6,58.8,67.4,62.1,58.1,100,98,89,29.99,29.62,17,13,27,0.64
2013-3-10,59.4,53.7,43.0,58.3,40.3,30.9,100,64,39,30.15,29.69,17,8,25,0.12
2013-3-11,65.3,49.8,32.9,30.7,27.3,22.6,71,45,24,30.22,30.05,9,3,16,0.00
2013-3-12,75.6,59.6,45.5,36.6,29.6,24.5,49,34,17,30.23,30.09,14,8,20,0.00
2013-3-13,72.4,58.7,45.4,40.2,37.7,35.4,77,48,28,30.44,30.23,12,5,18,0.00
2013-3-14,73.3,60.3,47.8,52.0,45.3,36.3,93,61,33,30.38,30.23,14,10,23,0.00
2013-3-15,76.1,63.3,52.7,54.3,50.4,42.0,95,67,37,30.24,29.99,17,12,25,0.00
2013-3-16,80.3,65.6,53.7,60.8,54.4,49.3,96,71,36,29.99,29.73,19,14,28,0.00
2013-3-17,82.1,69.1,61.8,62.0,59.1,56.6,90,73,43,29.79,29.63,20,9,28,0.00
2013-3-18,84.2,70.8,60.5,63.1,50.6,33.6,98,58,17,29.92,29.68,11,8,21,0.00
2013-3-19,80.8,64.9,50.3,62.9,53.4,43.8,89,68,44,29.99,29.81,15,7,23,0.00
2013-3-20,68.8,57.7,48.4,54.2,44.4,32.0,98,66,26,30.24,29.99,13,6,19,0.24
2013-3-21,69.6,61.2,53.3,59.1,51.7,38.8,88,71,56,30.03,29.61,21,14,34,0.00
2013-3-22,85.6,69.3,59.4,64.5,60.4,51.1,98,76,43,29.72,29.62,18,7,26,0.00
2013-3-23,82.3,62.2,48.1,62.1,53.0,47.1,98,75,35,29.77,29.56,8,4,19,0.00
2013-3-24,65.0,48.5,36.8,59.1,30.4,20.1,88,53,26,30.19,29.70,19,9,31,0.00
2013-3-25,55.8,43.6,31.0,23.9,18.6,11.5,69,40,19,30.43,30.18,10,4,21,0.00
2013-3-26,62.1,48.5,35.0,23.2,20.3,17.2,50,34,19,30.53,30.31,7,4,14,0.00
2013-3-27,64.5,53.0,43.2,47.2,38.3,20.7,75,58,36,30.34,30.16,17,12,24,0.00
2013-3-28,66.5,59.1,53.6,58.5,54.6,46.9,91,85,74,30.20,30.12,17,12,23,0.00
2013-3-29,73.3,64.8,57.3,58.5,56.6,55.0,94,77,54,30.17,30.04,17,12,25,0.00
2013-3-30,79.6,68.0,60.2,62.3,60.3,58.1,98,78,53,30.10,29.88,15,10,25,0.01
2013-3-31,78.8,67.2,62.1,64.5,61.1,56.3,96,82,57,29.97,29.84,14,7,21,0.05
2013-4-1,80.9,68.6,57.5,64.2,60.3,56.2,97,77,50,30.05,29.88,12,4,18,0.00
2013-4-2,73.0,64.6,48.8,64.6,61.2,47.9,98,89,72,29.99,29.82,13,7,26,0.79
2013-4-3,53.1,47.6,43.7,52.8,47.3,43.4,99,99,98,30.18,29.83,13,7,19,0.44
2013-4-4,60.8,48.1,41.2,46.4,42.6,38.3,99,82,57,30.28,30.14,10,6,19,0.00
2013-4-5,71.6,53.8,37.4,49.8,44.0,36.4,98,73,40,30.32,30.08,8,3,12,0.00
2013-4-6,75.9,62.0,48.8,58.8,52.8,45.3,95,73,54,30.09,29.85,19,13,27,0.00
2013-4-7,79.9,65.4,58.2,65.1,60.1,56.4,95,84,56,29.90,29.73,16,12,23,0.00
2013-4-8,71.2,65.9,62.8,66.8,63.4,59.9,96,92,85,29.80,29.64,17,12,25,0.00
2013-4-9,84.0,71.2,65.6,69.0,66.3,64.1,98,86,55,29.68,29.55,18,12,32,0.00
2013-4-10,70.1,53.1,39.7,67.3,48.5,38.7,97,85,68,29.95,29.60,19,11,27,0.02
2013-4-11,69.4,53.1,41.7,42.7,37.7,32.0,86,59,33,30.00,29.80,11,6,18,0.00
2013-4-12,77.4,61.8,48.3,48.4,43.3,39.8,74,54,31,30.02,29.85,10,6,15,0.00
2013-4-13,72.4,62.2,53.9,56.5,51.7,43.2,97,70,46,29.95,29.77,12,7,18,0.00
2013-4-14,86.6,69.9,56.5,64.7,59.0,54.1,98,72,35,29.82,29.60,13,9,20,0.00
2013-4-15,86.3,74.6,66.4,65.9,63.8,60.6,96,72,44,29.75,29.66,16,12,26,0.00
2013-4-16,84.2,72.7,64.3,69.1,65.4,62.1,96,79,58,29.84,29.75,16,11,26,0.00
2013-4-17,77.3,71.7,69.3,70.2,68.5,67.0,98,90,77,29.84,29.63,17,13,26,0.00
2013-4-18,61.4,56.1,49.5,44.6,39.9,34.8,62,55,47,30.10,29.88,14,10,22,0.09
2013-4-19,65.0,52.3,37.0,34.7,28.4,22.1,81,44,22,30.35,30.08,14,6,20,0.00
2013-4-20,69.2,56.3,43.0,46.6,31.4,26.5,75,41,23,30.24,29.99,14,8,23,0.00
2013-4-21,75.1,61.5,50.1,56.8,51.6,46.2,90,72,48,30.15,30.00,12,7,18,0.00
2013-4-22,78.8,66.8,56.3,61.1,57.8,53.7,93,75,52,30.09,29.86,17,11,25,0.00
2013-4-23,74.4,61.5,46.1,65.2,55.7,39.6,94,82,62,30.09,29.80,20,10,31,0.00
2013-4-24,59.3,48.7,40.2,40.0,36.3,33.2,88,64,42,30.30,30.09,17,10,27,0.00
2013-4-25,65.8,57.2,51.4,46.0,42.5,38.6,70,58,40,30.35,30.19,8,4,24,0.00
2013-4-26,74.6,64.6,55.3,67.7,61.3,46.0,99,90,62,30.19,30.02,17,9,27,0.00
2013-4-27,82.1,71.1,65.9,67.9,65.6,62.4,98,84,55,30.08,29.89,13,4,20,0.02
2013-4-28,81.9,70.6,61.2,63.0,60.9,57.3,98,74,46,30.01,29.83,9,5,15,0.01
2013-4-29,81.4,69.9,62.2,64.9,62.2,58.8,97,79,47,29.91,29.74,14,7,20,0.02
2013-4-30,80.9,69.1,61.0,64.7,62.7,60.0,98,82,55,29.82,29.70,10,6,14,0.00
2013-5-1,82.7,72.5,64.4,68.2,65.2,62.6,96,79,59,29.92,29.76,13,7,20,0.00
2013-5-2,72.7,50.3,43.1,66.1,46.3,36.0,95,86,70,30.36,29.89,16,10,33,0.34
2013-5-3,63.9,51.9,40.0,36.4,31.0,26.4,77,48,26,30.40,30.13,15,7,25,0.00
2013-5-4,80.2,63.3,47.0,39.2,32.2,27.5,53,34,16,30.14,29.89,12,4,18,0.00
2013-5-5,74.5,62.1,45.8,47.9,40.9,33.1,70,47,33,30.14,30.00,10,4,18,0.00
2013-5-6,73.9,62.6,52.5,50.8,46.9,43.4,72,57,41,30.16,30.01,8,3,11,0.00
2013-5-7,80.9,68.1,54.7,56.0,50.8,46.6,84,57,32,30.08,29.93,11,6,16,0.00
2013-5-8,78.1,67.9,59.6,65.5,61.4,55.7,96,81,63,29.98,29.86,16,9,21,0.00
2013-5-9,71.9,66.6,58.4,69.2,64.7,58.1,99,94,86,29.98,29.83,17,8,37,1.55
2013-5-10,82.4,66.6,57.3,66.2,60.7,56.8,99,84,48,30.03,29.84,11,4,20,0.41
2013-5-11,76.1,65.8,57.8,61.3,56.6,49.6,100,75,44,30.17,30.01,10,4,16,0.00
2013-5-12,76.7,65.9,55.8,55.8,50.3,44.2,79,59,35,30.26,30.12,9,2,13,0.02
2013-5-13,81.2,69.9,57.4,55.0,48.7,38.5,67,48,33,30.26,30.13,12,4,18,0.00
2013-5-14,80.9,69.1,59.3,66.2,59.4,53.2,93,73,41,30.20,29.97,16,9,23,0.00
2013-5-15,83.4,71.9,60.9,70.5,67.4,60.3,99,87,63,30.07,29.77,20,13,28,0.91
2013-5-16,88.4,75.0,67.2,73.0,69.5,66.9,99,85,52,29.81,29.68,20,12,27,0.00
2013-5-17,90.5,79.0,70.0,73.8,70.9,68.2,96,78,51,29.85,29.74,16,11,22,0.00
2013-5-18,89.9,77.4,67.9,71.0,67.8,64.4,98,75,50,29.87,29.75,21,14,30,0.00
2013-5-19,87.1,76.8,68.4,71.5,68.4,64.5,94,76,58,29.81,29.67,19,14,28,0.00
2013-5-20,88.9,77.4,69.0,71.0,68.8,67.2,95,77,52,29.79,29.64,18,14,26,0.00
2013-5-21,82.9,74.8,66.3,72.2,68.3,58.0,95,81,69,29.85,29.68,21,11,30,0.00
2013-5-22,88.8,75.5,61.9,70.4,59.6,48.6,86,60,36,29.91,29.77,8,4,26,0.00
2013-5-23,85.4,76.5,70.1,72.3,70.2,68.3,96,82,61,30.01,29.83,13,8,18,0.00
2013-5-24,75.5,68.9,64.7,71.3,67.1,63.0,99,94,83,30.09,29.97,12,4,16,0.96
2013-5-25,78.1,69.9,65.4,70.4,67.6,65.1,99,93,74,30.13,30.00,15,8,22,2.87
2013-5-26,81.2,72.5,67.9,72.7,69.4,64.6,98,90,74,30.07,29.95,14,9,20,0.04
2013-5-27,84.2,73.7,68.1,72.0,69.0,66.3,95,86,63,29.99,29.81,15,12,24,0.00
2013-5-28,84.0,74.8,68.7,70.9,68.4,66.1,93,81,62,29.87,29.71,19,14,29,0.00
2013-5-29,82.3,74.1,70.3,72.7,69.8,67.9,93,87,71,29.84,29.63,30,16,40,0.00
2013-5-30,84.1,76.1,71.1,72.8,70.5,68.2,93,83,67,29.80,29.70,22,14,33,0.00
2013-5-31,87.6,77.7,71.3,75.3,72.0,69.2,94,83,65,29.84,29.70,17,13,26,0.00
2013-6-1,90.6,79.6,72.2,74.8,71.9,69.8,93,79,55,29.87,29.72,20,11,29,0.00
2013-6-2,83.2,73.7,64.4,72.6,64.5,58.9,98,75,46,30.04,29.85,11,4,24,0.59
2013-6-3,87.3,75.7,64.3,68.0,64.6,60.2,89,70,47,29.97,29.82,9,4,14,0.00
2013-6-4,87.3,77.6,67.1,68.1,65.4,61.8,97,69,43,29.87,29.77,13,8,18,0.00
2013-6-5,88.3,76.9,66.8,69.6,66.8,63.7,96,73,47,29.84,29.72,13,8,21,0.00
2013-6-6,91.0,78.3,67.3,70.1,66.5,62.3,97,70,42,29.91,29.74,10,4,18,0.00
2013-6-7,77.7,71.2,64.9,65.1,62.1,54.3,93,74,55,29.99,29.86,7,3,10,0.00
2013-6-8,84.5,74.4,62.9,70.7,63.0,54.2,88,68,59,29.92,29.76,13,6,19,0.00
2013-6-9,87.6,75.4,70.5,72.5,69.9,65.2,94,84,54,29.93,29.80,12,6,20,0.06
2013-6-10,89.4,78.1,67.7,71.9,68.8,65.7,98,76,49,29.98,29.89,7,5,19,0.00
2013-6-11,88.0,77.2,70.6,71.7,69.7,64.9,98,79,54,30.00,29.92,14,7,20,0.00
2013-6-12,88.8,77.4,72.1,73.1,71.0,69.2,96,82,56,30.03,29.91,16,9,23,0.00
2013-6-13,88.3,75.6,69.5,73.2,70.8,66.9,96,86,54,30.03,29.91,23,7,30,0.12
2013-6-14,80.5,74.5,70.4,73.6,71.8,69.2,99,92,74,29.98,29.90,8,3,16,0.04
2013-6-15,84.8,77.0,72.8,73.4,72.2,69.7,97,86,64,29.98,29.88,9,5,13,0.00
2013-6-16,88.4,79.1,72.0,72.2,70.5,68.0,96,77,52,30.00,29.87,11,7,20,0.00
2013-6-17,89.0,79.7,71.5,72.8,71.0,68.0,95,76,52,29.97,29.82,13,8,19,0.00
2013-6-18,89.4,79.0,67.7,72.2,68.6,64.6,98,73,46,29.98,29.85,8,4,16,0.17
2013-6-19,89.9,80.1,71.1,70.8,69.0,65.6,97,71,48,29.94,29.86,13,7,18,0.00
2013-6-20,89.1,79.4,70.5,71.4,68.9,65.8,94,72,48,30.01,29.90,16,11,28,0.00
2013-6-21,89.0,80.1,71.9,72.0,68.5,61.3,94,70,44,30.04,29.92,16,11,21,0.00
2013-6-22,89.8,79.6,71.3,70.9,68.0,62.9,93,70,42,30.01,29.85,13,10,19,0.00
2013-6-23,88.5,79.0,71.3,70.2,67.5,61.0,95,70,44,29.95,29.85,16,11,24,0.00
2013-6-24,91.0,79.6,71.4,72.2,69.3,66.4,93,73,46,29.98,29.85,16,11,24,0.00
2013-6-25,90.7,80.8,72.8,70.9,69.3,64.8,91,71,43,29.95,29.82,18,13,27,0.00
2013-6-26,92.2,81.0,72.0,73.7,70.2,67.2,91,72,46,29.93,29.84,17,10,25,0.00
2013-6-27,95.1,82.2,71.1,71.8,65.4,56.3,94,62,29,29.99,29.88,12,7,19,0.00
2013-6-28,99.9,84.9,70.3,72.0,66.5,60.5,96,59,29,29.97,29.78,8,4,17,0.00
2013-6-29,102.0,89.7,77.0,67.2,62.2,57.6,56,41,24,29.84,29.69,7,2,11,0.00
2013-6-30,86.1,76.8,66.1,74.7,65.6,58.9,98,71,44,29.94,29.76,13,2,15,1.31
2013-7-1,82.6,74.5,66.4,65.9,58.4,52.4,73,58,38,30.01,29.87,10,3,18,0.00
2013-7-2,85.8,75.2,62.5,61.5,53.9,46.5,75,50,28,30.09,29.95,8,3,13,0.00
2013-7-3,90.0,78.6,67.4,56.1,49.6,43.5,59,38,22,30.02,29.88,7,2,12,0.00
2013-7-4,89.3,77.5,66.2,66.2,59.8,48.7,92,57,33,29.97,29.86,9,4,13,0.00
2013-7-5,91.2,79.4,67.0,69.0,62.2,53.2,96,59,30,29.96,29.81,10,5,16,0.00
2013-7-6,90.4,80.0,67.4,70.0,65.2,60.2,94,64,38,29.91,29.79,9,5,18,0.00
2013-7-7,93.3,79.6,70.1,72.9,69.7,66.2,97,74,45,29.94,29.83,12,5,13,0.00
2013-7-8,83.0,76.3,71.3,73.7,70.8,66.2,96,84,62,30.08,29.93,12,6,16,0.00
2013-7-9,90.4,80.1,71.1,73.1,70.2,65.6,98,74,45,30.12,29.98,11,8,16,0.00
2013-7-10,92.8,81.4,71.2,72.7,69.7,64.0,97,71,41,30.07,29.89,11,6,16,0.00
2013-7-11,92.3,81.6,71.6,73.2,68.1,62.4,95,66,41,29.97,29.84,11,6,15,0.00
2013-7-12,93.8,82.3,69.9,71.7,65.7,59.8,94,61,33,29.93,29.84,8,5,13,0.00
2013-7-13,97.0,84.8,72.2,68.5,64.0,58.5,80,53,28,29.95,29.80,7,3,13,0.00
2013-7-14,94.0,79.7,72.0,70.1,66.2,60.6,88,65,37,29.86,29.79,14,6,20,0.01
2013-7-15,74.5,71.0,66.3,72.0,69.1,65.2,98,94,88,30.01,29.83,8,4,13,0.07
2013-7-16,82.4,72.8,69.5,72.6,70.2,68.2,99,92,67,30.11,29.98,11,5,14,0.15
2013-7-17,82.4,71.8,68.1,75.5,69.8,67.5,99,94,67,30.16,30.08,11,3,16,0.54
2013-7-18,88.1,75.7,68.0,72.7,69.2,66.2,99,82,51,30.16,29.97,13,3,19,0.00
2013-7-19,90.0,78.6,69.8,71.8,68.2,62.9,99,74,41,30.06,29.88,6,4,11,0.00
2013-7-20,89.5,78.6,69.7,71.3,68.6,64.7,97,74,47,29.96,29.81,10,6,14,0.00
2013-7-21,89.6,78.8,70.6,74.3,71.3,68.4,98,79,54,29.93,29.83,12,6,18,0.00
2013-7-22,91.7,81.6,73.8,74.1,71.9,67.8,94,75,49,29.95,29.85,13,10,21,0.00
2013-7-23,91.9,82.3,74.4,74.2,69.6,63.4,91,68,41,29.97,29.83,15,10,19,0.00
2013-7-24,92.8,81.3,72.7,73.5,71.0,64.0,95,73,42,29.97,29.83,11,7,18,0.00
2013-7-25,93.8,82.5,71.6,71.9,69.0,63.3,95,67,38,29.99,29.91,8,5,16,0.00
2013-7-26,95.2,83.1,71.5,72.4,69.8,66.2,95,67,42,29.98,29.83,11,7,17,0.00
2013-7-27,86.8,78.9,71.3,74.9,70.5,66.7,93,77,55,29.94,29.84,9,4,14,0.00
2013-7-28,92.3,79.3,67.2,73.9,69.5,65.5,95,74,50,29.93,29.80,11,5,16,0.00
2013-7-29,94.0,82.5,74.2,73.2,69.1,60.7,93,68,35,29.97,29.88,15,10,23,0.00
2013-7-30,95.0,82.4,72.6,71.9,68.8,61.8,93,67,36,30.05,29.92,13,10,21,0.00
2013-7-31,98.7,83.9,70.8,70.6,64.3,57.6,95,58,28,30.05,29.89,11,6,16,0.00
2013-8-1,98.8,85.6,73.4,71.1,67.3,58.0,85,57,36,29.99,29.85,8,4,14,0.00
2013-8-2,96.0,84.4,72.7,69.2,64.6,58.4,79,54,29,29.93,29.83,9,6,15,0.00
2013-8-3,94.7,83.1,72.1,71.3,67.5,60.8,93,63,34,29.98,29.88,13,8,19,0.00
2013-8-4,94.0,82.7,72.6,73.0,70.2,67.2,94,68,43,30.02,29.88,12,8,18,0.00
2013-8-5,95.5,83.4,71.2,72.3,67.7,63.3,92,62,36,30.00,29.83,13,8,21,0.00
2013-8-6,96.8,83.9,70.8,73.4,68.6,62.5,94,64,33,29.91,29.76,13,9,19,0.00
2013-8-7,98.7,84.8,73.0,73.7,68.4,57.2,93,63,29,29.88,29.74,13,8,22,0.00
2013-8-8,96.7,83.7,71.9,72.7,67.3,58.5,93,63,32,29.86,29.74,12,8,17,0.00
2013-8-9,98.2,84.0,71.1,71.6,62.7,48.1,96,56,20,29.93,29.82,10,6,17,0.00
2013-8-10,99.3,84.9,73.6,71.8,68.3,58.7,86,61,27,30.00,29.88,12,4,15,0.00
2013-8-11,95.2,80.5,72.3,73.1,70.0,64.6,93,73,39,30.04,29.91,12,4,17,0.00
2013-8-12,91.8,80.7,70.2,71.4,68.8,65.2,97,70,43,30.04,29.91,11,5,19,0.00
2013-8-13,95.7,83.9,72.4,71.5,67.0,61.1,91,60,33,30.00,29.85,12,7,18,0.00
2013-8-14,97.6,81.1,74.2,71.4,69.3,64.0,88,70,34,29.96,29.83,11,7,17,0.00
2013-8-15,90.7,78.3,69.6,72.5,69.9,66.9,95,77,50,29.98,29.86,14,3,0,0.02
2013-8-16,89.3,76.5,69.3,73.9,67.1,60.3,97,76,39,30.04,29.91,12,4,17,0.00
2013-8-17,91.3,79.3,65.6,70.1,63.2,52.8,93,62,29,30.02,29.89,9,3,17,0.00
2013-8-18,92.8,80.9,69.7,64.7,58.6,51.4,66,48,25,30.03,29.93,6,2,10,0.00
2013-8-19,91.6,80.8,69.6,64.9,61.4,56.3,78,53,38,30.02,29.89,8,4,14,0.00
2013-8-20,92.4,79.6,68.7,68.5,63.1,54.6,91,61,31,29.99,29.90,9,4,14,0.00
2013-8-21,92.6,78.5,69.2,74.1,68.2,65.3,94,73,42,30.05,29.93,13,6,23,0.05
2013-8-22,91.8,80.8,70.7,72.5,68.8,65.1,97,70,42,30.06,29.89,10,3,11,0.00
2013-8-23,77.7,76.3,74.8,70.2,69.9,69.4,84,81,76,29.96,29.94,6,5,8,0.00
2013-8-24,95.8,82.9,73.2,70.8,67.6,63.4,82,62,37,30.01,29.88,9,3,16,0.00
2013-8-25,92.7,81.7,72.0,71.1,68.4,65.6,85,66,43,30.04,29.96,9,4,14,0.00
2013-8-26,87.0,76.0,70.2,72.9,69.9,67.7,97,83,55,30.09,29.98,9,3,11,0.11
2013-8-27,83.9,74.9,70.1,74.3,70.7,69.3,99,88,65,30.09,29.99,10,6,16,0.21
2013-8-28,91.8,79.7,70.6,71.8,68.5,63.6,98,72,41,30.10,29.97,8,5,12,0.00
2013-8-29,94.8,82.7,71.7,70.4,66.2,61.0,93,61,34,30.07,29.92,7,3,11,0.00
2013-8-30,98.3,85.3,74.8,68.3,64.8,60.3,76,53,30,29.99,29.83,8,4,10,0.00
2013-8-31,97.3,84.6,72.3,69.7,66.7,63.8,82,57,35,29.90,29.76,8,5,13,0.00
2013-9-1,96.7,83.8,72.5,71.9,67.4,64.2,90,61,37,29.88,29.76,9,5,15,0.00
2013-9-2,92.9,80.8,72.5,72.1,69.1,65.2,91,69,46,29.94,29.81,10,4,19,0.03
2013-9-3,97.1,83.8,71.1,68.7,65.2,61.7,82,57,33,29.98,29.84,8,3,15,0.00
2013-9-4,95.1,80.2,73.1,74.7,68.4,62.6,89,69,39,30.01,29.89,10,3,17,0.12
2013-9-5,92.6,80.8,70.3,72.0,68.5,64.4,95,69,41,30.08,29.96,12,4,21,0.00
2013-9-6,92.4,81.0,71.7,73.0,69.0,64.9,94,70,42,30.06,29.91,7,3,14,0.00
2013-9-7,93.9,79.0,70.6,73.6,69.4,64.7,96,75,41,30.00,29.85,13,4,21,0.00
2013-9-8,89.3,76.1,70.6,72.5,69.6,67.3,98,82,49,29.95,29.86,15,5,16,0.00
2013-9-9,89.3,74.9,68.8,71.3,68.8,65.6,98,83,48,29.97,29.87,12,5,25,0.05
2013-9-10,87.4,73.6,69.8,72.2,70.0,68.5,99,90,55,30.04,29.94,16,6,22,1.03
2013-9-11,89.0,77.0,69.8,75.8,69.3,63.1,100,80,47,30.08,29.96,8,4,15,0.01
2013-9-12,90.4,78.5,69.8,71.0,66.9,59.8,98,72,37,30.05,29.89,7,3,11,0.00
2013-9-13,91.8,80.6,70.5,70.8,64.6,59.9,92,62,35,29.95,29.79,8,3,13,0.00
2013-9-14,84.5,74.5,69.3,69.8,65.7,63.2,86,75,53,29.91,29.83,9,3,11,0.00
2013-9-15,89.3,78.0,70.4,71.8,68.9,66.5,95,76,49,29.99,29.87,7,3,12,0.00
2013-9-16,85.4,74.8,69.8,73.8,70.8,68.8,99,88,61,30.03,29.94,10,2,18,0.76
2013-9-17,85.4,76.4,70.0,73.3,70.6,69.0,98,83,60,30.05,29.91,9,2,12,0.00
2013-9-18,88.2,77.5,71.0,72.4,70.0,65.9,99,80,51,29.99,29.85,10,5,16,0.00
2013-9-19,85.8,76.8,72.3,74.5,72.0,69.9,98,86,64,29.92,29.79,11,5,17,0.01
2013-9-20,75.4,71.4,67.3,73.7,70.6,67.0,99,97,92,29.85,29.75,14,6,18,0.53
2013-9-21,79.3,69.2,61.3,66.8,60.0,50.3,99,76,40,29.94,29.84,12,7,22,0.00
2013-9-22,81.6,68.0,56.3,55.9,50.4,45.8,77,55,30,29.92,29.79,7,2,11,0.00
2013-9-23,87.0,73.8,61.2,55.9,50.7,46.8,63,46,26,29.84,29.73,6,3,8,0.00
2013-9-24,90.8,78.7,67.6,60.0,56.8,50.8,63,48,34,29.91,29.81,6,2,10,0.00
2013-9-25,90.5,80.4,71.9,66.0,60.8,57.8,65,52,38,29.87,29.74,8,4,11,0.00
2013-9-26,87.5,77.0,67.3,72.2,62.3,53.9,94,63,34,29.86,29.78,13,7,22,0.00
2013-9-27,86.6,77.2,72.0,75.2,72.1,69.2,93,85,66,29.87,29.77,15,10,23,0.00
2013-9-28,83.6,76.7,70.8,76.1,72.9,69.5,98,89,69,29.96,29.82,15,8,23,0.91
2013-9-29,73.1,65.3,60.9,68.7,63.0,58.2,99,93,77,30.04,29.92,9,5,18,0.12
2013-9-30,86.3,73.2,59.5,64.8,59.4,55.5,92,65,38,29.97,29.79,7,3,14,0.00
2013-10-1,86.1,76.5,69.4,72.4,68.3,57.7,98,78,54,29.88,29.80,11,6,16,0.00
2013-10-2,86.4,77.4,72.4,72.2,70.3,66.8,97,80,54,29.92,29.82,12,7,20,0.00
2013-10-3,86.6,77.4,69.7,71.8,69.4,67.4,96,78,54,29.90,29.79,13,9,20,0.00
2013-10-4,85.9,76.4,70.6,70.4,68.8,67.5,93,78,55,29.87,29.80,16,11,24,0.00
2013-10-5,84.3,71.1,57.1,69.9,62.4,43.6,95,75,53,30.03,29.83,13,8,19,0.00
2013-10-6,75.4,61.5,47.8,52.1,44.3,34.5,98,60,25,30.16,30.01,13,5,18,0.53
2013-10-7,81.9,68.7,56.6,47.7,40.2,32.3,50,36,23,30.18,30.04,5,2,11,0.00
2013-10-8,80.7,69.4,59.6,50.2,46.5,42.1,58,45,32,30.08,29.96,9,5,14,0.00
2013-10-9,79.5,67.9,57.2,61.5,56.8,47.4,94,69,48,30.04,29.94,13,7,17,0.00
2013-10-10,80.7,70.6,63.1,66.3,63.3,60.0,95,79,56,30.01,29.85,14,9,22,0.00
2013-10-11,83.8,75.0,68.4,72.9,69.8,64.7,94,85,65,29.93,29.81,15,10,23,0.00
2013-10-12,86.0,77.1,72.1,73.9,72.0,68.9,98,85,63,29.98,29.86,9,5,20,0.00
2013-10-13,73.2,68.1,62.9,72.3,67.6,62.6,100,98,90,30.14,29.97,10,5,20,2.96
2013-10-14,79.9,72.3,68.3,72.6,69.7,68.3,100,92,71,30.07,29.89,11,7,16,0.04
2013-10-15,79.3,69.4,52.6,70.3,66.2,52.1,98,90,70,29.99,29.85,13,8,17,0.02
2013-10-16,56.9,53.0,50.2,56.6,52.7,49.9,100,99,98,30.11,29.94,13,7,20,0.91
2013-10-17,71.9,57.9,46.9,54.5,50.2,46.2,99,78,49,30.17,30.00,6,3,13,0.01
2013-10-18,68.9,62.2,56.2,64.1,58.0,50.1,98,86,77,30.02,29.88,8,4,11,0.00
2013-10-19,63.2,53.0,42.8,62.6,43.6,38.6,98,73,45,30.20,30.01,12,6,22,0.04
2013-10-20,70.3,57.7,46.6,51.6,46.1,40.2,79,66,50,30.13,29.93,12,6,19,0.00
2013-10-21,77.8,65.3,56.9,66.8,59.9,50.1,93,83,65,30.07,29.90,16,7,24,0.00
2013-10-22,70.8,60.0,47.2,53.1,44.1,35.8,95,61,31,30.18,30.07,11,5,16,0.00
2013-10-23,78.0,66.1,52.4,45.7,41.1,37.5,59,41,25,30.19,30.09,8,3,14,0.00
2013-10-24,77.2,66.2,56.7,50.6,45.9,42.4,64,49,33,30.23,30.12,10,4,14,0.00
2013-10-25,74.8,65.7,58.3,61.2,57.3,50.1,91,75,55,30.30,30.19,11,5,17,0.00
2013-10-26,76.8,67.1,62.2,65.1,62.5,60.9,98,86,65,30.20,30.05,13,8,18,0.00
2013-10-27,71.3,65.7,61.6,64.2,62.6,60.6,98,90,76,30.10,29.99,9,4,18,0.42
2013-10-28,77.5,69.6,63.0,67.3,65.2,61.5,99,87,69,30.06,29.95,16,11,27,0.00
2013-10-29,78.5,72.0,68.0,69.6,67.5,65.2,97,86,69,30.03,29.93,19,13,30,0.00
2013-10-30,75.9,72.0,69.6,71.5,70.0,66.9,99,93,83,29.99,29.79,17,8,27,0.09
2013-10-31,75.2,69.3,62.7,70.1,51.6,31.6,99,61,26,29.89,29.75,11,4,16,0.22
2013-11-1,78.5,66.4,55.6,54.0,40.6,32.2,61,40,21,30.10,29.85,12,5,19,0.00
2013-11-2,68.5,58.2,47.4,43.3,38.2,31.7,75,50,28,30.32,30.11,9,3,17,0.00
2013-11-3,66.7,56.5,47.4,52.1,40.2,36.3,80,56,38,30.25,30.02,15,6,21,0.00
2013-11-4,64.5,60.2,56.8,61.9,56.8,52.1,98,89,80,30.06,29.97,15,7,23,0.03
2013-11-5,73.8,66.9,62.3,67.4,64.9,61.4,99,94,80,30.01,29.89,13,7,21,0.54
2013-11-6,68.1,56.1,46.3,67.4,53.6,41.1,100,92,72,30.35,29.96,12,7,19,2.80
2013-11-7,60.3,48.9,36.1,41.8,38.0,30.6,94,69,41,30.51,30.35,12,4,15,0.00
2013-11-8,60.2,53.3,47.4,45.0,39.9,34.2,78,61,39,30.43,30.18,10,3,14,0.00
2013-11-9,62.4,57.2,52.0,56.9,52.7,44.9,94,85,74,30.20,30.13,10,6,17,0.00
2013-11-10,63.5,59.0,56.6,58.9,57.0,55.2,97,93,84,30.32,30.18,7,3,12,0.00
2013-11-11,73.7,61.3,51.9,58.0,54.3,50.5,98,79,54,30.29,30.17,5,2,8,0.00
2013-11-12,57.2,48.4,36.5,53.4,44.1,27.6,98,85,68,30.65,30.26,14,7,23,0.00
2013-11-13,52.2,39.2,28.5,31.5,26.8,22.8,80,62,37,30.69,30.45,9,3,15,0.00
2013-11-14,58.3,47.3,35.1,48.8,34.1,24.3,83,61,39,30.45,30.07,16,8,23,0.00
2013-11-15,75.1,62.5,53.0,58.7,55.2,48.9,97,78,54,30.07,29.87,16,8,23,0.00
2013-11-16,74.0,67.4,60.3,68.7,63.8,57.5,96,89,77,29.90,29.73,17,13,29,0.00
2013-11-17,84.8,74.4,68.0,69.6,62.0,47.1,97,70,35,29.94,29.76,13,5,21,0.00
2013-11-18,74.3,64.8,53.6,65.7,56.3,47.6,88,74,48,30.10,29.92,9,4,15,0.00
2013-11-19,69.5,60.4,52.7,54.1,48.8,42.5,84,67,44,30.14,29.99,10,5,13,0.00
2013-11-20,71.4,61.5,55.0,64.4,59.0,53.6,99,92,78,30.00,29.89,13,7,18,0.01
2013-11-21,73.8,68.9,64.8,69.4,67.6,64.4,99,96,85,30.04,29.92,15,7,20,0.02
2013-11-22,69.6,37.5,30.2,69.0,37.2,30.0,99,99,89,30.43,30.03,18,12,27,0.77
2013-11-23,36.2,33.1,31.0,36.1,33.0,30.8,100,99,99,30.55,30.42,14,10,27,0.02
2013-11-24,35.8,33.1,30.2,35.8,32.3,29.1,100,97,89,30.57,30.38,13,6,19,0.26
2013-11-25,36.4,33.7,30.3,35.9,33.1,29.8,99,98,93,30.41,30.15,14,5,21,0.04
2013-11-26,35.0,34.5,33.8,33.9,32.9,31.8,96,94,92,30.28,30.21,11,8,16,0.00
2013-11-27,47.2,41.5,35.3,22.5,20.6,18.5,58,43,33,30.53,30.41,8,2,16,0.00
2013-11-28,54.6,41.8,32.7,28.6,25.4,21.6,71,53,32,30.50,30.39,8,4,16,0.00
2013-11-29,55.5,45.8,35.1,49.2,41.3,24.1,99,85,53,30.55,30.40,10,5,14,0.00
2013-11-30,62.4,54.8,48.7,56.3,51.5,44.9,95,89,78,30.40,30.20,12,7,17,0.00
2013-12-1,67.3,59.5,54.5,59.5,56.2,53.4,97,89,75,30.22,29.97,12,8,18,0.00
2013-12-2,78.6,66.1,56.1,56.6,48.3,37.2,93,59,23,29.97,29.69,10,4,15,0.00
2013-12-3,83.4,69.7,61.0,52.8,43.6,33.4,73,42,17,29.71,29.59,10,6,17,0.00
2013-12-4,75.3,66.8,61.8,64.2,57.9,43.8,93,74,47,29.78,29.65,9,6,13,0.00
2013-12-5,64.5,40.8,26.8,62.9,37.5,25.3,98,88,77,30.10,29.76,16,11,24,0.00
2013-12-6,30.0,27.0,23.6,28.3,25.3,20.7,97,93,88,30.51,30.07,16,11,23,0.00
2013-12-7,26.4,24.5,21.5,22.5,21.5,18.8,92,88,82,30.50,30.37,15,7,24,0.00
2013-12-8,54.3,36.1,24.0,45.7,33.2,21.8,97,90,71,30.38,30.09,10,3,17,0.00
2013-12-9,41.8,35.5,28.5,41.5,35.0,28.0,99,98,96,30.44,30.11,13,6,20,0.04
2013-12-10,43.8,32.8,23.1,28.1,24.3,21.2,97,73,44,30.60,30.42,14,5,16,0.00
2013-12-11,55.9,41.1,28.3,34.0,28.5,22.9,82,63,38,30.62,30.40,6,3,10,0.00
2013-12-12,51.4,38.9,27.8,35.6,31.6,25.8,93,76,54,30.65,30.36,8,3,10,0.00
2013-12-13,49.6,44.7,40.5,49.2,41.2,34.2,99,88,75,30.38,29.94,14,8,22,0.02
2013-12-14,50.1,44.8,37.8,45.1,36.9,28.8,99,75,54,30.39,29.93,14,8,23,0.01
2013-12-15,58.8,44.8,32.7,31.4,28.9,26.5,78,56,32,30.47,30.32,8,3,10,0.00
2013-12-16,64.6,50.3,39.7,36.8,31.7,27.7,63,50,32,30.36,30.23,9,5,15,0.00
2013-12-17,70.0,56.4,45.3,40.7,35.8,31.6,63,48,27,30.35,30.24,7,4,9,0.00
2013-12-18,65.5,55.5,46.5,53.9,47.2,36.5,97,75,55,30.30,30.05,18,8,22,0.00
2013-12-19,67.9,60.9,54.5,60.4,57.2,51.6,96,88,74,30.05,29.80,24,15,30,0.00
2013-12-20,69.3,64.2,61.3,65.6,62.0,60.4,98,93,78,29.83,29.63,17,11,29,0.00
2013-12-21,67.1,53.5,41.4,64.7,43.7,35.3,99,74,35,29.86,29.56,14,6,22,0.44
2013-12-22,53.4,44.7,32.9,39.7,34.6,27.8,92,69,51,30.40,29.86,11,6,16,0.00
2013-12-23,53.5,39.1,27.1,29.9,26.8,24.6,92,65,35,30.59,30.40,8,3,10,0.00
2013-12-24,55.4,44.6,34.5,37.9,28.9,24.0,80,57,36,30.59,30.28,19,8,23,0.00
2013-12-25,57.8,47.0,39.7,50.0,43.5,37.4,98,88,73,30.44,30.25,17,4,25,0.00
2013-12-26,52.4,42.3,33.6,41.8,37.4,32.1,95,83,67,30.48,30.36,8,3,13,0.00
2013-12-27,53.5,46.6,42.7,45.1,40.6,32.4,97,81,45,30.49,30.36,5,1,10,0.08
2013-12-28,57.6,48.4,42.4,48.0,42.8,37.5,97,81,62,30.36,30.05,9,3,16,0.00
2013-12-29,59.3,46.4,28.5,50.7,43.1,27.3,97,89,73,30.30,30.00,12,7,17,0.00
2013-12-30,41.9,33.8,26.8,30.7,26.8,22.5,97,76,59,30.48,30.26,10,5,15,0.00
2013-12-31,56.5,41.6,31.9,34.3,30.2,26.9,88,65,40,30.53,30.29,9,3,14,0.00
2014-1-1,60.9,48.5,36.9,53.6,41.8,28.1,97,78,65,30.29,30.04,15,8,20,0.00
2014-1-2,49.8,38.7,29.3,47.8,28.3,23.1,95,67,45,30.51,30.15,17,8,22,0.00